createdAt,value
2018-07-14T00:00:57.802Z,8.70
2018-07-14T00:01:57.912Z,8.60
2018-07-14T00:03:07.851Z,8.40
2018-07-14T00:04:13.992Z,8.20
2018-07-14T00:05:15.546Z,9.10
2018-07-14T00:06:26.605Z,9.00
2018-07-14T00:08:31.993Z,9.60
2018-07-14T00:09:37.179Z,8.80
2018-07-14T00:10:41.797Z,9.50
2018-07-14T00:11:48.866Z,10.10
2018-07-14T00:13:56.559Z,8.60
2018-07-14T00:15:08.001Z,10.20
2018-07-14T00:16:13.265Z,9.10
2018-07-14T00:17:20.543Z,9.90
2018-07-14T00:18:24.226Z,8.40
2018-07-14T00:20:28.556Z,9.90
2018-07-14T00:21:42.281Z,9.00
2018-07-14T00:22:44.128Z,9.10
2018-07-14T00:23:52.123Z,8.80
2018-07-14T00:25:00.017Z,9.00
2018-07-14T00:25:59.405Z,9.60
2018-07-14T00:27:07.298Z,11.30
2018-07-14T00:28:21.644Z,10.80
2018-07-14T00:29:21.646Z,11.00
2018-07-14T00:30:22.576Z,10.00
2018-07-14T00:31:32.999Z,9.40
2018-07-14T00:32:37.540Z,9.90
2018-07-14T00:33:33.450Z,9.70
2018-07-14T00:34:42.673Z,9.40
2018-07-14T00:36:55.693Z,10.60
2018-07-14T00:37:58.975Z,9.90
2018-07-14T00:39:10.290Z,11.00
2018-07-14T00:40:13.849Z,10.80
2018-07-14T00:41:19.068Z,10.90
2018-07-14T00:43:25.639Z,10.80
2018-07-14T00:44:32.092Z,11.00
2018-07-14T00:45:33.123Z,10.10
2018-07-14T00:46:46.237Z,10.80
2018-07-14T00:47:55.877Z,10.50
2018-07-14T00:48:55.980Z,10.30
2018-07-14T00:49:59.159Z,10.60
2018-07-14T00:51:10.535Z,10.20
2018-07-14T00:52:10.651Z,12.20
2018-07-14T00:54:27.798Z,10.50
2018-07-14T00:55:34.216Z,11.00
2018-07-14T00:56:27.979Z,11.20
2018-07-14T00:57:43.007Z,10.90
2018-07-14T00:58:43.453Z,10.30
2018-07-14T00:59:57.282Z,10.70
2018-07-14T01:00:58.314Z,11.10
2018-07-14T01:02:05.489Z,11.50
2018-07-14T01:04:15.743Z,11.20
2018-07-14T01:05:25.580Z,11.80
2018-07-14T01:06:28.350Z,12.60
2018-07-14T01:07:29.382Z,11.10
2018-07-14T01:08:37.682Z,11.90
2018-07-14T01:09:39.635Z,12.10
2018-07-14T01:10:42.817Z,12.70
2018-07-14T01:11:58.697Z,13.90
2018-07-14T01:12:56.655Z,11.40
2018-07-14T01:13:57.993Z,12.90
2018-07-14T01:15:07.012Z,11.90
2018-07-14T01:16:13.015Z,11.90
2018-07-14T01:18:26.080Z,12.80
2018-07-14T01:19:32.015Z,12.10
2018-07-14T01:20:38.482Z,16.10
2018-07-14T01:22:48.838Z,12.20
2018-07-14T01:23:51.099Z,12.20
2018-07-14T01:24:55.199Z,12.30
2018-07-14T01:26:03.194Z,12.10
2018-07-14T01:27:11.291Z,12.40
2018-07-14T01:28:19.184Z,13.40
2018-07-14T01:29:27.016Z,14.20
2018-07-14T01:30:28.309Z,14.70
2018-07-14T01:32:44.819Z,13.30
2018-07-14T01:33:38.774Z,14.70
2018-07-14T01:34:47.487Z,13.00
2018-07-14T01:35:59.371Z,14.10
2018-07-14T01:37:06.548Z,13.30
2018-07-14T01:39:10.021Z,13.80
2018-07-14T01:40:25.381Z,14.30
2018-07-14T01:41:22.549Z,14.10
2018-07-14T01:42:25.426Z,13.90
2018-07-14T01:44:33.020Z,15.90
2018-07-14T01:45:44.081Z,14.80
2018-07-14T01:46:59.666Z,14.50
2018-07-14T01:48:03.351Z,14.20
2018-07-14T01:49:59.465Z,14.30
2018-07-14T01:51:11.328Z,15.20
2018-07-14T01:52:20.677Z,14.70
2018-07-14T01:53:18.850Z,14.50
2018-07-14T01:54:29.803Z,14.70
2018-07-14T01:56:35.757Z,15.10
2018-07-14T01:57:39.860Z,14.10
2018-07-14T01:58:54.100Z,14.90
2018-07-14T01:59:50.013Z,14.40
2018-07-14T02:01:02.306Z,15.20
2018-07-14T02:03:06.927Z,14.90
2018-07-14T02:04:13.385Z,15.00
2018-07-14T02:05:17.085Z,15.60
2018-07-14T02:06:32.856Z,15.30
2018-07-14T02:07:29.280Z,15.90
2018-07-14T02:08:38.296Z,15.90
2018-07-14T02:09:51.721Z,15.20
2018-07-14T02:10:54.079Z,15.80
2018-07-14T02:11:59.410Z,16.00
2018-07-14T02:14:06.178Z,15.90
2018-07-14T02:15:17.030Z,16.10
2018-07-14T02:16:22.582Z,15.80
2018-07-14T02:17:16.136Z,16.00
2018-07-14T02:18:24.540Z,16.20
2018-07-14T02:19:42.466Z,15.90
2018-07-14T02:20:42.883Z,17.30
2018-07-14T02:21:46.372Z,17.10
2018-07-14T02:23:53.035Z,15.50
2018-07-14T02:25:01.445Z,16.40
2018-07-14T02:26:04.728Z,16.00
2018-07-14T02:27:07.705Z,16.10
2018-07-14T02:28:20.034Z,15.90
2018-07-14T02:29:24.721Z,16.30
2018-07-14T02:31:43.675Z,16.90
2018-07-14T02:32:40.405Z,16.80
2018-07-14T02:33:42.255Z,16.10
2018-07-14T02:34:56.803Z,16.30
2018-07-14T02:35:56.038Z,17.70
2018-07-14T02:38:08.395Z,16.80
2018-07-14T02:40:25.920Z,15.00
2018-07-14T02:41:32.793Z,15.40
2018-07-14T02:42:35.569Z,16.90
2018-07-14T02:43:40.173Z,15.20
2018-07-14T02:44:42.039Z,16.50
2018-07-14T02:45:50.940Z,16.20
2018-07-14T02:46:49.820Z,16.60
2018-07-14T02:48:09.998Z,17.90
2018-07-14T02:49:07.958Z,19.70
2018-07-14T02:50:10.731Z,18.80
2018-07-14T02:51:11.043Z,19.70
2018-07-14T02:52:22.109Z,19.90
2018-07-14T02:54:22.847Z,20.20
2018-07-14T02:55:38.001Z,19.70
2018-07-14T02:56:40.876Z,20.50
2018-07-14T02:58:00.044Z,20.20
2018-07-14T02:58:51.744Z,20.00
2018-07-14T02:59:59.636Z,20.30
2018-07-14T03:01:04.046Z,20.50
2018-07-14T03:02:13.884Z,20.50
2018-07-14T03:03:19.624Z,20.60
2018-07-14T03:04:18.401Z,20.00
2018-07-14T03:05:24.471Z,20.70
2018-07-14T03:06:25.481Z,20.20
2018-07-14T03:07:41.872Z,20.40
2018-07-14T03:08:38.845Z,20.60
2018-07-14T03:09:53.461Z,20.40
2018-07-14T03:10:54.692Z,19.70
2018-07-14T03:11:53.164Z,19.70
2018-07-14T03:13:13.871Z,19.60
2018-07-14T03:14:06.211Z,19.20
2018-07-14T03:15:26.978Z,18.90
2018-07-14T03:16:23.610Z,20.30
2018-07-14T03:17:43.272Z,20.30
2018-07-14T03:20:55.377Z,19.60
2018-07-14T03:21:46.067Z,20.00
2018-07-14T03:24:00.413Z,20.70
2018-07-14T03:26:04.052Z,22.60
2018-07-14T03:27:24.498Z,20.20
2018-07-14T03:28:22.055Z,21.00
2018-07-14T03:29:22.062Z,20.70
2018-07-14T03:30:34.965Z,20.80
2018-07-14T03:31:35.687Z,20.20
2018-07-14T03:32:47.471Z,21.20
2018-07-14T03:33:40.617Z,21.20
2018-07-14T03:34:58.133Z,21.70
2018-07-14T03:35:59.369Z,21.30
2018-07-14T03:38:07.472Z,20.60
2018-07-14T03:39:14.545Z,20.80
2018-07-14T03:40:23.358Z,21.10
2018-07-14T03:41:19.577Z,22.20
2018-07-14T03:42:31.563Z,21.00
2018-07-14T03:43:36.391Z,20.40
2018-07-14T03:44:48.222Z,20.40
2018-07-14T03:45:55.443Z,20.90
2018-07-14T03:46:58.009Z,21.00
2018-07-14T03:48:20.062Z,20.90
2018-07-14T03:49:08.265Z,20.60
2018-07-14T03:50:12.673Z,20.60
2018-07-14T03:51:20.060Z,21.10
2018-07-14T03:53:32.049Z,20.50
2018-07-14T03:54:33.393Z,20.80
2018-07-14T03:55:48.038Z,21.10
2018-07-14T03:56:39.338Z,21.10
2018-07-14T03:58:05.767Z,20.70
2018-07-14T03:58:58.707Z,20.10
2018-07-14T04:00:08.034Z,20.60
2018-07-14T04:01:11.930Z,20.50
2018-07-14T04:02:10.092Z,20.60
2018-07-14T04:03:23.006Z,19.80
2018-07-14T04:05:33.052Z,21.10
2018-07-14T04:06:45.757Z,19.90
2018-07-14T04:07:50.269Z,20.30
2018-07-14T04:08:52.644Z,21.20
2018-07-14T04:09:51.101Z,21.60
2018-07-14T04:10:53.872Z,20.00
2018-07-14T04:12:13.439Z,20.30
2018-07-14T04:13:10.272Z,23.70
2018-07-14T04:14:06.274Z,20.20
2018-07-14T04:15:21.855Z,20.60
2018-07-14T04:16:27.187Z,20.70
2018-07-14T04:17:30.984Z,20.80
2018-07-14T04:18:43.892Z,20.90
2018-07-14T04:22:06.440Z,20.50
2018-07-14T04:23:03.079Z,20.20
2018-07-14T04:24:04.074Z,19.80
2018-07-14T04:26:15.991Z,20.60
2018-07-14T04:27:19.171Z,21.20
2018-07-14T04:28:27.064Z,21.60
2018-07-14T04:29:29.835Z,20.60
2018-07-14T04:30:37.726Z,20.40
2018-07-14T04:31:39.371Z,20.60
2018-07-14T04:33:06.415Z,21.20
2018-07-14T04:34:51.085Z,20.50
2018-07-14T04:36:07.661Z,21.30
2018-07-14T04:37:17.293Z,21.30
2018-07-14T04:38:20.785Z,19.70
2018-07-14T04:39:18.936Z,21.00
2018-07-14T04:40:37.075Z,20.90
2018-07-14T04:41:26.230Z,20.50
2018-07-14T04:42:46.308Z,22.00
2018-07-14T04:43:31.466Z,21.30
2018-07-14T04:45:55.647Z,21.40
2018-07-14T04:47:07.637Z,21.00
2018-07-14T04:48:05.493Z,21.20
2018-07-14T04:49:08.885Z,20.50
2018-07-14T04:51:25.070Z,22.10
2018-07-14T04:52:25.087Z,20.80
2018-07-14T04:53:32.867Z,20.90
2018-07-14T04:54:43.932Z,21.60
2018-07-14T04:55:54.749Z,21.20
2018-07-14T04:56:41.356Z,23.00
2018-07-14T04:57:56.956Z,21.60
2018-07-14T04:59:03.825Z,22.40
2018-07-14T05:00:01.783Z,21.60
2018-07-14T05:01:21.760Z,21.90
2018-07-14T05:02:18.082Z,20.20
2018-07-14T05:04:25.055Z,20.30
2018-07-14T05:05:40.422Z,21.40
2018-07-14T05:08:51.971Z,20.60
2018-07-14T05:11:16.195Z,22.00
2018-07-14T05:12:07.190Z,22.10
2018-07-14T05:13:17.948Z,21.70
2018-07-14T05:15:23.707Z,21.60
2018-07-14T05:16:32.089Z,21.80
2018-07-14T05:17:41.837Z,21.40
2018-07-14T05:18:42.355Z,21.80
2018-07-14T05:19:51.883Z,19.70
2018-07-14T05:20:52.316Z,22.20
2018-07-14T05:21:54.459Z,22.20
2018-07-14T05:23:01.121Z,21.70
2018-07-14T05:24:08.194Z,22.10
2018-07-14T05:25:14.089Z,21.90
2018-07-14T05:26:26.435Z,22.20
2018-07-14T05:27:27.263Z,22.20
2018-07-14T05:28:30.562Z,23.00
2018-07-14T05:30:42.231Z,21.60
2018-07-14T05:31:47.357Z,21.80
2018-07-14T05:32:55.966Z,22.70
2018-07-14T05:33:54.845Z,22.50
2018-07-14T05:35:02.438Z,22.50
2018-07-14T05:35:59.160Z,22.50
2018-07-14T05:37:12.581Z,22.30
2018-07-14T05:38:16.174Z,22.90
2018-07-14T05:39:23.452Z,21.80
2018-07-14T05:40:36.461Z,22.50
2018-07-14T05:41:28.570Z,22.30
2018-07-14T05:42:38.624Z,22.10
2018-07-14T05:43:47.949Z,23.90
2018-07-14T05:44:50.415Z,22.70
2018-07-14T05:45:55.230Z,23.10
2018-07-14T05:47:04.868Z,21.80
2018-07-14T05:48:15.626Z,22.00
2018-07-14T05:49:12.971Z,21.00
2018-07-14T05:50:28.337Z,21.10
2018-07-14T05:51:24.864Z,21.50
2018-07-14T05:52:32.549Z,21.30
2018-07-14T05:54:41.480Z,21.90
2018-07-14T05:55:51.103Z,22.30
2018-07-14T05:57:53.576Z,22.60
2018-07-14T05:59:04.450Z,22.20
2018-07-14T06:00:11.715Z,21.40
2018-07-14T06:01:18.788Z,22.30
2018-07-14T06:02:14.099Z,25.50
2018-07-14T06:03:28.016Z,21.20
2018-07-14T06:04:30.890Z,22.40
2018-07-14T06:05:39.108Z,24.40
2018-07-14T06:06:56.915Z,22.00
2018-07-14T06:07:59.337Z,21.70
2018-07-14T06:08:59.895Z,22.10
2018-07-14T06:09:52.836Z,21.30
2018-07-14T06:11:11.891Z,23.20
2018-07-14T06:12:06.061Z,22.10
2018-07-14T06:13:14.259Z,22.50
2018-07-14T06:14:22.184Z,23.10
2018-07-14T06:16:34.146Z,22.10
2018-07-14T06:17:30.568Z,22.30
2018-07-14T06:18:40.817Z,22.80
2018-07-14T06:19:47.989Z,23.40
2018-07-14T06:20:53.423Z,22.80
2018-07-14T06:23:10.750Z,22.20
2018-07-14T06:24:01.637Z,22.70
2018-07-14T06:25:12.611Z,22.60
2018-07-14T06:26:18.652Z,23.10
2018-07-14T06:27:22.856Z,28.70
2018-07-14T06:28:31.257Z,30.50
2018-07-14T06:29:42.394Z,25.50
2018-07-14T06:30:47.655Z,23.20
2018-07-14T06:32:49.818Z,23.00
2018-07-14T06:33:54.332Z,23.40
2018-07-14T06:34:59.766Z,23.30
2018-07-14T06:36:13.084Z,23.30
2018-07-14T06:37:15.959Z,23.90
2018-07-14T06:39:26.520Z,23.00
2018-07-14T06:40:42.917Z,22.90
2018-07-14T06:41:41.485Z,22.90
2018-07-14T06:42:44.562Z,22.80
2018-07-14T06:43:48.359Z,23.20
2018-07-14T06:44:56.867Z,23.90
2018-07-14T06:45:59.024Z,23.30
2018-07-14T06:47:15.311Z,23.10
2018-07-14T06:48:08.660Z,22.90
2018-07-14T06:49:18.088Z,23.00
2018-07-14T06:50:19.016Z,23.30
2018-07-14T06:51:21.489Z,21.90
2018-07-14T06:52:30.806Z,22.90
2018-07-14T06:53:39.312Z,23.60
2018-07-14T06:54:47.819Z,22.70
2018-07-14T06:55:54.788Z,22.80
2018-07-14T06:57:00.735Z,22.30
2018-07-14T06:57:57.569Z,21.90
2018-07-14T06:59:01.875Z,21.70
2018-07-14T07:00:14.170Z,22.60
2018-07-14T07:01:21.140Z,22.80
2018-07-14T07:03:40.302Z,21.90
2018-07-14T07:04:28.123Z,22.40
2018-07-14T07:05:46.462Z,22.10
2018-07-14T07:06:44.112Z,23.60
2018-07-14T07:07:54.767Z,22.20
2018-07-14T07:09:05.732Z,22.60
2018-07-14T07:10:03.092Z,23.30
2018-07-14T07:11:03.493Z,23.70
2018-07-14T07:12:16.121Z,22.90
2018-07-14T07:13:14.770Z,24.70
2018-07-14T07:14:23.789Z,26.90
2018-07-14T07:15:35.878Z,22.00
2018-07-14T07:17:43.982Z,23.70
2018-07-14T07:18:47.777Z,23.60
2018-07-14T07:19:50.856Z,23.60
2018-07-14T07:21:00.795Z,23.20
2018-07-14T07:22:07.254Z,23.20
2018-07-14T07:23:14.429Z,24.00
2018-07-14T07:24:11.124Z,23.30
2018-07-14T07:25:23.248Z,23.80
2018-07-14T07:27:37.906Z,22.60
2018-07-14T07:28:39.199Z,22.20
2018-07-14T07:29:44.371Z,23.10
2018-07-14T07:30:44.179Z,24.00
2018-07-14T07:31:57.287Z,22.30
2018-07-14T07:33:01.701Z,23.40
2018-07-14T07:33:59.594Z,23.50
2018-07-14T07:35:08.983Z,23.90
2018-07-14T07:36:15.356Z,26.30
2018-07-14T07:37:21.187Z,24.10
2018-07-14T07:38:32.500Z,24.20
2018-07-14T07:39:39.729Z,24.80
2018-07-14T07:41:39.128Z,25.50
2018-07-14T07:43:57.132Z,22.80
2018-07-14T07:44:56.350Z,21.40
2018-07-14T07:46:01.273Z,23.30
2018-07-14T07:47:11.826Z,21.90
2018-07-14T07:48:11.636Z,20.70
2018-07-14T07:49:20.955Z,20.70
2018-07-14T07:53:43.614Z,20.90
2018-07-14T07:54:43.004Z,19.60
2018-07-14T07:55:57.135Z,19.50
2018-07-14T07:56:57.353Z,19.70
2018-07-14T07:58:07.089Z,19.30
2018-07-14T07:59:13.957Z,18.80
2018-07-14T08:00:20.930Z,17.80
2018-07-14T08:01:24.517Z,17.80
2018-07-14T08:02:30.155Z,18.00
2018-07-14T08:03:36.614Z,21.10
2018-07-14T08:05:48.411Z,21.20
2018-07-14T08:06:59.471Z,18.30
2018-07-14T08:08:01.629Z,18.50
2018-07-14T08:10:03.383Z,17.50
2018-07-14T08:11:05.131Z,18.60
2018-07-14T08:12:20.707Z,18.70
2018-07-14T08:13:25.318Z,19.40
2018-07-14T08:14:30.544Z,17.10
2018-07-14T08:15:35.261Z,18.30
2018-07-14T08:16:42.847Z,17.60
2018-07-14T08:17:48.895Z,16.40
2018-07-14T08:18:52.895Z,17.70
2018-07-14T08:22:08.891Z,16.40
2018-07-14T08:24:18.839Z,16.10
2018-07-14T08:25:20.583Z,16.20
2018-07-14T08:26:35.133Z,16.60
2018-07-14T08:27:43.127Z,18.80
2018-07-14T08:28:42.517Z,16.00
2018-07-14T08:29:47.529Z,16.90
2018-07-14T08:31:57.900Z,16.50
2018-07-14T08:33:00.987Z,15.90
2018-07-14T08:34:10.227Z,16.70
2018-07-14T08:35:18.094Z,17.40
2018-07-14T08:37:36.946Z,15.00
2018-07-14T08:38:43.406Z,15.20
2018-07-14T08:39:38.294Z,17.60
2018-07-14T08:42:07.607Z,16.00
2018-07-14T08:43:06.370Z,15.20
2018-07-14T08:44:02.895Z,16.10
2018-07-14T08:45:23.486Z,15.70
2018-07-14T08:46:23.081Z,18.10
2018-07-14T08:48:38.456Z,16.30
2018-07-14T08:49:29.246Z,16.20
2018-07-14T08:52:52.412Z,18.00
2018-07-14T08:53:42.892Z,14.90
2018-07-14T08:55:00.309Z,15.20
2018-07-14T08:56:03.591Z,15.90
2018-07-14T08:57:16.911Z,16.80
2018-07-14T08:59:23.069Z,15.00
2018-07-14T09:01:39.165Z,16.30
2018-07-14T09:03:52.894Z,16.20
2018-07-14T09:05:13.484Z,18.20
2018-07-14T09:06:39.193Z,15.70
2018-07-14T09:08:36.342Z,16.00
2018-07-14T09:09:38.707Z,15.60
2018-07-14T09:10:49.254Z,16.90
2018-07-14T09:11:51.002Z,16.90
2018-07-14T09:12:51.932Z,17.10
2018-07-14T09:13:50.299Z,18.60
2018-07-14T09:16:02.704Z,16.30
2018-07-14T09:17:48.688Z,17.20
2018-07-14T09:18:26.270Z,16.20
2018-07-14T09:19:22.160Z,17.30
2018-07-14T09:21:53.330Z,17.00
2018-07-14T09:22:45.162Z,17.30
2018-07-14T09:24:04.908Z,15.70
2018-07-14T09:25:12.492Z,18.80
2018-07-14T09:25:59.216Z,17.90
2018-07-14T09:27:02.165Z,17.80
2018-07-14T09:28:18.250Z,16.50
2018-07-14T09:29:15.286Z,16.20
2018-07-14T09:30:24.202Z,20.30
2018-07-14T09:31:19.398Z,16.90
2018-07-14T09:33:22.164Z,18.90
2018-07-14T09:34:34.470Z,18.60
2018-07-14T09:36:55.566Z,18.80
2018-07-14T09:37:59.935Z,19.00
2018-07-14T09:41:01.951Z,15.70
2018-07-14T09:42:14.042Z,17.50
2018-07-14T09:44:26.242Z,17.10
2018-07-14T09:45:32.187Z,17.80
2018-07-14T09:46:30.350Z,18.00
2018-07-14T09:47:40.355Z,17.90
2018-07-14T09:48:44.292Z,16.90
2018-07-14T09:49:56.483Z,15.40
2018-07-14T09:52:04.802Z,17.20
2018-07-14T09:53:08.587Z,16.70
2018-07-14T09:54:07.365Z,17.80
2018-07-14T09:55:21.867Z,17.60
2018-07-14T09:56:27.040Z,18.10
2018-07-14T09:57:33.908Z,18.50
2018-07-14T09:58:43.028Z,19.90
2018-07-14T09:59:43.649Z,19.50
2018-07-14T10:00:51.033Z,18.60
2018-07-14T10:01:50.216Z,19.40
2018-07-14T10:03:06.710Z,17.80
2018-07-14T10:04:04.260Z,18.00
2018-07-14T10:05:12.355Z,18.30
2018-07-14T10:06:28.338Z,17.10
2018-07-14T10:08:25.382Z,18.00
2018-07-14T10:09:43.512Z,17.70
2018-07-14T10:10:41.792Z,18.60
2018-07-14T10:12:48.960Z,18.50
2018-07-14T10:13:56.654Z,17.80
2018-07-14T10:14:54.203Z,16.80
2018-07-14T10:16:05.058Z,18.10
2018-07-14T10:17:14.281Z,17.60
2018-07-14T10:18:08.960Z,17.00
2018-07-14T10:19:20.129Z,17.20
2018-07-14T10:20:25.564Z,17.30
2018-07-14T10:21:28.645Z,17.80
2018-07-14T10:22:47.491Z,18.60
2018-07-14T10:23:43.402Z,18.40
2018-07-14T10:24:56.619Z,18.60
2018-07-14T10:26:00.718Z,18.90
2018-07-14T10:26:57.763Z,17.10
2018-07-14T10:28:11.077Z,18.10
2018-07-14T10:29:08.677Z,17.10
2018-07-14T10:30:44.884Z,16.80
2018-07-14T10:31:18.594Z,17.20
2018-07-14T10:32:29.648Z,17.40
2018-07-14T10:33:29.034Z,18.20
2018-07-14T10:34:45.426Z,17.10
2018-07-14T10:35:54.134Z,18.00
2018-07-14T10:36:46.461Z,18.80
2018-07-14T10:39:03.779Z,18.00
2018-07-14T10:39:57.846Z,18.40
2018-07-14T10:42:09.850Z,16.70
2018-07-14T10:43:19.473Z,18.40
2018-07-14T10:44:25.727Z,18.70
2018-07-14T10:45:25.122Z,17.50
2018-07-14T10:47:48.787Z,19.50
2018-07-14T10:48:43.371Z,16.90
2018-07-14T10:49:56.379Z,17.60
2018-07-14T10:51:05.815Z,17.30
2018-07-14T10:53:20.873Z,17.10
2018-07-14T10:54:12.894Z,16.60
2018-07-14T10:55:23.348Z,16.60
2018-07-14T10:56:28.982Z,17.10
2018-07-14T10:57:48.856Z,17.20
2018-07-14T10:58:31.761Z,18.80
2018-07-14T10:59:45.286Z,18.90
2018-07-14T11:00:51.438Z,18.40
2018-07-14T11:02:00.146Z,17.60
2018-07-14T11:02:58.207Z,18.00
2018-07-14T11:05:11.739Z,16.70
2018-07-14T11:06:19.425Z,17.90
2018-07-14T11:07:22.411Z,18.00
2018-07-14T11:08:30.395Z,16.80
2018-07-14T11:10:52.220Z,16.70
2018-07-14T11:11:39.844Z,17.00
2018-07-14T11:12:57.154Z,16.20
2018-07-14T11:14:05.245Z,14.80
2018-07-14T11:15:10.578Z,16.70
2018-07-14T11:16:09.559Z,17.20
2018-07-14T11:18:26.674Z,16.10
2018-07-14T11:19:45.934Z,14.90
2018-07-14T11:21:04.073Z,14.50
2018-07-14T11:21:36.017Z,16.60
2018-07-14T11:22:57.835Z,16.80
2018-07-14T11:27:19.158Z,15.00
2018-07-14T11:28:10.984Z,15.90
2018-07-14T11:29:26.239Z,15.30
2018-07-14T11:30:38.020Z,14.50
2018-07-14T11:33:41.933Z,14.10
2018-07-14T11:35:55.666Z,14.00
2018-07-14T11:37:16.460Z,15.30
2018-07-14T11:38:01.109Z,13.80
2018-07-14T11:39:02.039Z,14.10
2018-07-14T11:40:22.982Z,13.90
2018-07-14T11:41:14.542Z,13.70
2018-07-14T11:42:21.513Z,13.90
2018-07-14T11:44:33.926Z,13.60
2018-07-14T11:45:54.404Z,15.60
2018-07-14T11:48:05.686Z,13.30
2018-07-14T11:49:05.078Z,13.50
2018-07-14T11:50:10.722Z,13.10
2018-07-14T11:51:28.436Z,12.00
2018-07-14T11:52:36.435Z,12.40
2018-07-14T11:53:41.350Z,11.80
2018-07-14T11:54:24.677Z,12.60
2018-07-14T11:55:42.499Z,11.50
2018-07-14T11:56:22.428Z,12.30
2018-07-14T11:57:32.884Z,12.90
2018-07-14T11:59:08.931Z,11.40
2018-07-14T11:59:59.722Z,11.30
2018-07-14T12:00:47.850Z,12.40
2018-07-14T12:02:12.638Z,9.60
2018-07-14T12:03:08.754Z,9.40
2018-07-14T12:04:15.212Z,9.40
2018-07-14T12:05:10.098Z,10.00
2018-07-14T12:07:23.069Z,9.60
2018-07-14T12:08:36.231Z,10.10
2018-07-14T12:09:55.283Z,9.00
2018-07-14T12:10:39.725Z,10.10
2018-07-14T12:11:51.509Z,11.20
2018-07-14T12:12:51.938Z,11.30
2018-07-14T12:13:54.089Z,11.40
2018-07-14T12:16:02.288Z,10.70
2018-07-14T12:17:17.861Z,10.90
2018-07-14T12:19:35.589Z,10.60
2018-07-14T12:20:31.603Z,10.70
2018-07-14T12:21:41.338Z,12.70
2018-07-14T12:22:45.440Z,10.70
2018-07-14T12:23:54.666Z,10.60
2018-07-14T12:24:52.621Z,9.40
2018-07-14T12:26:09.934Z,9.00
2018-07-14T12:26:53.149Z,8.80
2018-07-14T12:28:13.326Z,9.90
2018-07-14T12:29:13.989Z,9.70
2018-07-14T12:30:22.449Z,11.50
2018-07-14T12:31:34.647Z,9.60
2018-07-14T12:32:37.223Z,9.00
2018-07-14T12:33:43.065Z,10.30
2018-07-14T12:34:47.161Z,8.90
2018-07-14T12:37:05.095Z,8.90
2018-07-14T12:38:05.715Z,8.40
2018-07-14T12:39:06.857Z,8.50
2018-07-14T12:40:09.928Z,10.00
2018-07-14T12:42:19.266Z,9.40
2018-07-14T12:43:27.513Z,8.90
2018-07-14T12:44:37.399Z,8.30
2018-07-14T12:45:39.042Z,9.30
2018-07-14T12:46:49.296Z,8.90
2018-07-14T12:47:55.645Z,8.80
2018-07-14T12:48:54.833Z,11.10
2018-07-14T12:50:00.267Z,9.40
2018-07-14T12:51:03.345Z,10.90
2018-07-14T12:52:07.243Z,9.50
2018-07-14T12:55:34.403Z,9.50
2018-07-14T12:56:50.177Z,8.40
2018-07-14T12:57:37.185Z,9.30
2018-07-14T12:58:52.956Z,8.50
2018-07-14T12:59:55.352Z,8.20
2018-07-14T13:01:03.316Z,8.70
2018-07-14T13:02:07.724Z,10.30
2018-07-14T13:03:09.571Z,8.40
2018-07-14T13:04:11.320Z,11.10
2018-07-14T13:05:22.794Z,11.10
2018-07-14T13:06:33.873Z,8.60
2018-07-14T13:07:37.705Z,8.70
2018-07-14T13:08:47.597Z,7.90
2018-07-14T13:10:54.470Z,8.90
2018-07-14T13:11:53.557Z,7.90
2018-07-14T13:13:02.164Z,7.50
2018-07-14T13:14:11.080Z,9.40
2018-07-14T13:15:06.376Z,6.50
2018-07-14T13:16:26.353Z,8.60
2018-07-14T13:17:26.665Z,7.40
2018-07-14T13:18:31.283Z,7.40
2018-07-14T13:19:37.226Z,7.80
2018-07-14T13:20:40.100Z,8.20
2018-07-14T13:21:44.305Z,8.20
2018-07-14T13:22:53.633Z,8.30
2018-07-14T13:26:14.031Z,7.00
2018-07-14T13:27:11.988Z,6.90
2018-07-14T13:28:24.601Z,6.80
2018-07-14T13:29:22.660Z,6.60
2018-07-14T13:30:31.362Z,6.60
2018-07-14T13:31:40.892Z,7.30
2018-07-14T13:32:36.086Z,6.60
2018-07-14T13:33:49.712Z,6.90
2018-07-14T13:35:50.245Z,6.30
2018-07-14T13:37:07.755Z,6.60
2018-07-14T13:38:17.695Z,6.10
2018-07-14T13:39:16.781Z,6.60
2018-07-14T13:40:14.741Z,8.10
2018-07-14T13:42:33.185Z,7.80
2018-07-14T13:43:34.421Z,6.30
2018-07-14T13:45:43.550Z,6.10
2018-07-14T13:46:49.904Z,6.40
2018-07-14T13:47:56.368Z,6.30
2018-07-14T13:49:07.639Z,6.20
2018-07-14T13:50:08.663Z,6.70
2018-07-14T13:51:13.697Z,7.10
2018-07-14T13:52:16.265Z,8.20
2018-07-14T13:53:23.122Z,11.30
2018-07-14T13:54:28.223Z,6.10
2018-07-14T13:56:39.731Z,6.40
2018-07-14T13:59:03.918Z,6.50
2018-07-14T13:59:54.088Z,6.70
2018-07-14T14:02:03.932Z,6.60
2018-07-14T14:03:11.107Z,6.20
2018-07-14T14:05:30.473Z,6.10
2018-07-14T14:06:35.294Z,6.10
2018-07-14T14:07:34.482Z,6.10
2018-07-14T14:08:52.718Z,6.30
2018-07-14T14:09:45.963Z,6.30
2018-07-14T14:10:54.367Z,6.50
2018-07-14T14:11:53.043Z,6.00
2018-07-14T14:12:58.682Z,6.60
2018-07-14T14:14:11.591Z,6.60
2018-07-14T14:15:17.845Z,6.50
2018-07-14T14:17:19.805Z,6.00
2018-07-14T14:18:30.050Z,7.60
2018-07-14T14:19:36.610Z,6.60
2018-07-14T14:20:39.696Z,6.60
2018-07-14T14:21:54.338Z,6.60
2018-07-14T14:23:05.303Z,6.60
2018-07-14T14:24:11.251Z,7.20
2018-07-14T14:25:08.741Z,6.20
2018-07-14T14:26:27.442Z,5.80
2018-07-14T14:27:22.840Z,6.40
2018-07-14T14:28:20.735Z,6.60
2018-07-14T14:29:32.793Z,6.50
2018-07-14T14:30:46.721Z,7.60
2018-07-14T14:31:50.241Z,6.70
2018-07-14T14:32:57.286Z,7.60
2018-07-14T14:34:02.245Z,9.10
2018-07-14T14:35:04.239Z,6.20
2018-07-14T14:36:09.692Z,7.70
2018-07-14T14:37:20.252Z,6.40
2018-07-14T14:38:16.473Z,7.00
2018-07-14T14:39:27.251Z,6.90
2018-07-14T14:40:37.247Z,6.10
2018-07-14T14:41:40.247Z,6.00
2018-07-14T14:42:53.247Z,6.80
2018-07-14T14:43:52.134Z,7.10
2018-07-14T14:45:52.746Z,7.30
2018-07-14T14:46:55.738Z,6.30
2018-07-14T14:48:16.845Z,5.90
2018-07-14T14:50:21.870Z,7.80
2018-07-14T14:51:25.975Z,7.30
2018-07-14T14:54:47.909Z,6.10
2018-07-14T14:55:47.505Z,5.60
2018-07-14T14:57:56.761Z,6.50
2018-07-14T14:59:01.755Z,6.90
2018-07-14T15:00:05.756Z,6.90
2018-07-14T15:01:13.142Z,5.80
2018-07-14T15:02:27.279Z,7.40
2018-07-14T15:04:32.764Z,6.50
2018-07-14T15:05:37.231Z,6.20
2018-07-14T15:06:41.763Z,5.60
2018-07-14T15:07:47.260Z,5.60
2018-07-14T15:08:47.259Z,7.10
2018-07-14T15:10:03.763Z,5.50
2018-07-14T15:10:54.377Z,5.70
2018-07-14T15:12:03.793Z,5.20
2018-07-14T15:13:16.813Z,6.60
2018-07-14T15:14:19.270Z,6.40
2018-07-14T15:15:26.773Z,6.10
2018-07-14T15:16:25.270Z,5.60
2018-07-14T15:18:40.767Z,6.30
2018-07-14T15:19:47.281Z,5.80
2018-07-14T15:21:55.268Z,5.70
2018-07-14T15:23:07.770Z,5.30
2018-07-14T15:25:13.770Z,6.70
2018-07-14T15:28:33.599Z,5.30
2018-07-14T15:29:40.064Z,5.50
2018-07-14T15:30:30.439Z,5.80
2018-07-14T15:31:41.299Z,5.30
2018-07-14T15:32:47.281Z,5.80
2018-07-14T15:33:51.859Z,5.60
2018-07-14T15:34:51.559Z,6.70
2018-07-14T15:37:02.022Z,5.60
2018-07-14T15:40:25.694Z,5.40
2018-07-14T15:41:49.055Z,5.50
2018-07-14T15:43:46.090Z,5.30
2018-07-14T15:45:58.786Z,7.60
2018-07-14T15:47:04.036Z,5.30
2018-07-14T15:48:31.798Z,6.10
2018-07-14T15:49:18.178Z,5.10
2018-07-14T15:51:28.446Z,6.20
2018-07-14T15:53:40.219Z,6.20
2018-07-14T15:54:42.292Z,5.80
2018-07-14T15:55:58.800Z,6.30
2018-07-14T15:56:48.023Z,6.70
2018-07-14T15:57:59.601Z,8.00
2018-07-14T15:58:59.813Z,5.80
2018-07-14T15:59:59.000Z,5.80
2018-07-14T16:01:18.792Z,5.80
2018-07-14T16:02:44.792Z,5.20
2018-07-14T16:03:23.294Z,6.80
2018-07-14T16:04:38.864Z,6.80
2018-07-14T16:05:30.061Z,6.80
2018-07-14T16:06:43.789Z,5.40
2018-07-14T16:09:58.257Z,5.30
2018-07-14T16:12:09.306Z,6.00
2018-07-14T16:13:12.798Z,6.60
2018-07-14T16:14:34.800Z,9.20
2018-07-14T16:16:27.886Z,4.70
2018-07-14T16:18:35.578Z,5.00
2018-07-14T16:20:49.826Z,5.00
2018-07-14T16:21:56.287Z,5.30
2018-07-14T16:22:49.641Z,4.90
2018-07-14T16:24:07.869Z,5.40
2018-07-14T16:25:12.178Z,5.10
2018-07-14T16:26:14.341Z,4.50
2018-07-14T16:27:17.004Z,5.10
2018-07-14T16:28:47.217Z,4.50
2018-07-14T16:29:33.094Z,4.20
2018-07-14T16:30:33.305Z,4.90
2018-07-14T16:31:39.150Z,4.50
2018-07-14T16:32:48.374Z,5.00
2018-07-14T16:34:01.488Z,4.90
2018-07-14T16:36:06.627Z,4.70
2018-07-14T16:37:06.119Z,4.50
2018-07-14T16:38:25.475Z,4.60
2018-07-14T16:40:36.239Z,4.70
2018-07-14T16:43:01.321Z,4.50
2018-07-14T16:44:01.152Z,4.60